createdAt,value
2022-09-28T00:00:02.139Z,96452.00
2022-09-28T00:00:12.235Z,96452.00
2022-09-28T00:00:22.202Z,96452.00
2022-09-28T00:00:32.154Z,96452.00
2022-09-28T00:00:43.187Z,96454.00
2022-09-28T00:00:52.184Z,96456.00
2022-09-28T00:01:02.143Z,96456.00
2022-09-28T00:01:12.194Z,96454.00
2022-09-28T00:01:23.676Z,96456.00
2022-09-28T00:01:32.199Z,96458.00
2022-09-28T00:01:43.145Z,96460.00
2022-09-28T00:01:53.702Z,96456.00
2022-09-28T00:02:02.204Z,96456.00
2022-09-28T00:02:13.046Z,96456.00
2022-09-28T00:02:23.679Z,96456.00
2022-09-28T00:02:32.252Z,96456.00
2022-09-28T00:02:43.092Z,96458.00
2022-09-28T00:02:52.288Z,96458.00
2022-09-28T00:03:02.206Z,96458.00
2022-09-28T00:03:12.218Z,96458.00
2022-09-28T00:03:22.133Z,96458.00
2022-09-28T00:03:32.224Z,96458.00
2022-09-28T00:03:43.102Z,96456.00
2022-09-28T00:03:53.586Z,96458.00
2022-09-28T00:04:02.125Z,96456.00
2022-09-28T00:04:12.137Z,96456.00
2022-09-28T00:04:22.137Z,96454.00
2022-09-28T00:04:33.583Z,96456.00
2022-09-28T00:04:43.563Z,96454.00
2022-09-28T00:04:53.564Z,96452.00
2022-09-28T00:05:03.574Z,96454.00
2022-09-28T00:05:13.574Z,96452.00
2022-09-28T00:05:23.055Z,96450.00
2022-09-28T00:05:32.121Z,96452.00
2022-09-28T00:05:42.906Z,96450.00
2022-09-28T00:05:53.566Z,96452.00
2022-09-28T00:06:03.544Z,96452.00
2022-09-28T00:06:13.575Z,96446.00
2022-09-28T00:06:22.113Z,96450.00
2022-09-28T00:06:33.566Z,96454.00
2022-09-28T00:06:43.567Z,96450.00
2022-09-28T00:06:52.095Z,96452.00
2022-09-28T00:07:03.564Z,96452.00
2022-09-28T00:07:13.544Z,96450.00
2022-09-28T00:07:22.105Z,96448.00
2022-09-28T00:07:33.555Z,96450.00
2022-09-28T00:07:42.105Z,96448.00
2022-09-28T00:07:53.554Z,96450.00
2022-09-28T00:08:03.545Z,96450.00
2022-09-28T00:08:13.554Z,96452.00
2022-09-28T00:08:23.565Z,96452.00
2022-09-28T00:08:33.045Z,96452.00
2022-09-28T00:08:43.545Z,96450.00
2022-09-28T00:08:53.534Z,96450.00
2022-09-28T00:09:02.164Z,96446.00
2022-09-28T00:09:13.591Z,96448.00
2022-09-28T00:09:23.535Z,96448.00
2022-09-28T00:09:32.087Z,96448.00
2022-09-28T00:09:43.536Z,96446.00
2022-09-28T00:09:53.535Z,96448.00
2022-09-28T00:10:02.084Z,96446.00
2022-09-28T00:10:13.557Z,96446.00
2022-09-28T00:10:22.074Z,96450.00
2022-09-28T00:10:32.098Z,96446.00
2022-09-28T00:10:42.075Z,96444.00
2022-09-28T00:10:52.967Z,96446.00
2022-09-28T00:11:03.546Z,96446.00
2022-09-28T00:11:12.069Z,96446.00
2022-09-28T00:11:22.085Z,96446.00
2022-09-28T00:11:32.085Z,96448.00
2022-09-28T00:11:42.635Z,96444.00
2022-09-28T00:11:52.665Z,96444.00
2022-09-28T00:12:03.505Z,96446.00
2022-09-28T00:12:13.517Z,96446.00
2022-09-28T00:12:23.515Z,96444.00
2022-09-28T00:12:33.015Z,96444.00
2022-09-28T00:12:42.055Z,96446.00
2022-09-28T00:12:53.524Z,96444.00
2022-09-28T00:13:02.056Z,96446.00
2022-09-28T00:13:13.536Z,96442.00
2022-09-28T00:13:22.775Z,96444.00
2022-09-28T00:13:33.506Z,96444.00
2022-09-28T00:13:43.495Z,96446.00
2022-09-28T00:13:53.534Z,96444.00
2022-09-28T00:14:02.515Z,96444.00
2022-09-28T00:14:12.745Z,96444.00
2022-09-28T00:14:23.485Z,96442.00
2022-09-28T00:14:32.515Z,96442.00
2022-09-28T00:14:43.505Z,96440.00
2022-09-28T00:14:53.495Z,96440.00
2022-09-28T00:15:03.489Z,96440.00
2022-09-28T00:15:12.075Z,96440.00
2022-09-28T00:15:23.506Z,96437.00
2022-09-28T00:15:32.047Z,96438.00
2022-09-28T00:15:43.497Z,96437.00
2022-09-28T00:15:52.057Z,96435.00
2022-09-28T00:16:03.005Z,96437.00
2022-09-28T00:16:13.521Z,96437.00
2022-09-28T00:16:22.947Z,96438.00
2022-09-28T00:16:33.506Z,96437.00
2022-09-28T00:16:43.533Z,96437.00
2022-09-28T00:16:52.119Z,96437.00
2022-09-28T00:17:03.476Z,96435.00
2022-09-28T00:17:13.475Z,96435.00
2022-09-28T00:17:22.025Z,96433.00
2022-09-28T00:17:32.057Z,96433.00
2022-09-28T00:17:42.028Z,96433.00
2022-09-28T00:17:53.507Z,96431.00
2022-09-28T00:18:03.466Z,96433.00
2022-09-28T00:18:13.466Z,96431.00
2022-09-28T00:18:22.008Z,96429.00
2022-09-28T00:18:33.494Z,96431.00
2022-09-28T00:18:42.032Z,96429.00
2022-09-28T00:18:53.486Z,96429.00
2022-09-28T00:19:03.456Z,96431.00
2022-09-28T00:19:12.014Z,96427.00
2022-09-28T00:19:22.037Z,96425.00
2022-09-28T00:19:33.486Z,96427.00
2022-09-28T00:19:43.617Z,96425.00
2022-09-28T00:19:53.457Z,96423.00
2022-09-28T00:20:01.998Z,96425.00
2022-09-28T00:20:13.476Z,96423.00
2022-09-28T00:20:22.783Z,96415.00
2022-09-28T00:20:32.037Z,96423.00
2022-09-28T00:20:43.438Z,96423.00
2022-09-28T00:20:53.478Z,96413.00
2022-09-28T00:21:02.966Z,96415.00
2022-09-28T00:21:13.467Z,96413.00
2022-09-28T00:21:23.458Z,96409.00
2022-09-28T00:21:33.468Z,96409.00
2022-09-28T00:21:42.009Z,96409.00
2022-09-28T00:21:51.996Z,96409.00
2022-09-28T00:22:03.448Z,96409.00
2022-09-28T00:22:12.177Z,96407.00
2022-09-28T00:22:23.427Z,96409.00
2022-09-28T00:22:33.449Z,96407.00
2022-09-28T00:22:41.988Z,96407.00
2022-09-28T00:22:52.797Z,96407.00
2022-09-28T00:23:02.147Z,96407.00
2022-09-28T00:23:13.438Z,96409.00
2022-09-28T00:23:21.986Z,96409.00
2022-09-28T00:23:31.999Z,96407.00
2022-09-28T00:23:41.987Z,96409.00
2022-09-28T00:23:53.419Z,96405.00
2022-09-28T00:24:02.939Z,96409.00
2022-09-28T00:24:11.978Z,96407.00
2022-09-28T00:24:26.624Z,96405.00
2022-09-28T00:24:31.988Z,96407.00
2022-09-28T00:24:43.438Z,96407.00
2022-09-28T00:24:53.428Z,96405.00
2022-09-28T00:25:01.968Z,96407.00
2022-09-28T00:25:11.985Z,96407.00
2022-09-28T00:25:22.020Z,96405.00
2022-09-28T00:25:32.007Z,96405.00
2022-09-28T00:25:42.308Z,96407.00
2022-09-28T00:25:52.339Z,96403.00
2022-09-28T00:26:02.380Z,96405.00
2022-09-28T00:26:12.307Z,96405.00
2022-09-28T00:26:22.028Z,96405.00
2022-09-28T00:26:32.016Z,96407.00
2022-09-28T00:26:42.108Z,96407.00
2022-09-28T00:26:51.962Z,96401.00
2022-09-28T00:27:01.973Z,96403.00
2022-09-28T00:27:12.427Z,96405.00
2022-09-28T00:27:21.948Z,96405.00
2022-09-28T00:27:32.389Z,96407.00
2022-09-28T00:27:42.426Z,96407.00
2022-09-28T00:27:51.952Z,96403.00
2022-09-28T00:28:02.390Z,96403.00
2022-09-28T00:28:12.438Z,96403.00
2022-09-28T00:28:21.945Z,96403.00
2022-09-28T00:28:32.509Z,96405.00
2022-09-28T00:28:43.389Z,96401.00
2022-09-28T00:28:51.952Z,96401.00
2022-09-28T00:29:01.955Z,96405.00
2022-09-28T00:29:11.961Z,96401.00
2022-09-28T00:29:21.958Z,96403.00
2022-09-28T00:29:33.388Z,96403.00
2022-09-28T00:29:43.406Z,96401.00
2022-09-28T00:29:52.889Z,96403.00
2022-09-28T00:30:03.410Z,96403.00
2022-09-28T00:30:11.941Z,96401.00
2022-09-28T00:30:23.417Z,96403.00
2022-09-28T00:30:31.995Z,96401.00
2022-09-28T00:30:41.919Z,96399.00
2022-09-28T00:30:51.970Z,96401.00
2022-09-28T00:31:03.469Z,96399.00
2022-09-28T00:31:11.969Z,96399.00
2022-09-28T00:31:23.431Z,96401.00
2022-09-28T00:31:32.061Z,96399.00
2022-09-28T00:31:43.461Z,96399.00
2022-09-28T00:31:53.451Z,96399.00
2022-09-28T00:32:03.414Z,96399.00
2022-09-28T00:32:11.979Z,96399.00
2022-09-28T00:32:23.380Z,96399.00
2022-09-28T00:32:31.935Z,96399.00
2022-09-28T00:32:42.938Z,96401.00
2022-09-28T00:32:53.389Z,96401.00
2022-09-28T00:33:03.370Z,96397.00
2022-09-28T00:33:11.931Z,96397.00
2022-09-28T00:33:21.919Z,96397.00
2022-09-28T00:33:33.390Z,96397.00
2022-09-28T00:33:43.382Z,96393.00
2022-09-28T00:33:51.970Z,96397.00
2022-09-28T00:34:01.950Z,96395.00
2022-09-28T00:34:13.370Z,96395.00
2022-09-28T00:34:21.925Z,96397.00
2022-09-28T00:34:33.373Z,96395.00
2022-09-28T00:34:43.360Z,96397.00
2022-09-28T00:34:51.909Z,96393.00
2022-09-28T00:35:01.919Z,96395.00
2022-09-28T00:35:11.907Z,96393.00
2022-09-28T00:35:23.350Z,96393.00
2022-09-28T00:35:31.926Z,96395.00
2022-09-28T00:35:42.060Z,96389.00
2022-09-28T00:35:51.889Z,96393.00
2022-09-28T00:36:03.349Z,96393.00
2022-09-28T00:36:11.901Z,96393.00
2022-09-28T00:36:23.351Z,96391.00
2022-09-28T00:36:33.341Z,96391.00
2022-09-28T00:36:41.900Z,96389.00
2022-09-28T00:36:53.342Z,96387.00
2022-09-28T00:37:01.891Z,96387.00
2022-09-28T00:37:13.389Z,96389.00
2022-09-28T00:37:23.714Z,96387.00
2022-09-28T00:37:33.348Z,96385.00
2022-09-28T00:37:43.345Z,96391.00
2022-09-28T00:37:51.910Z,96385.00
2022-09-28T00:38:03.340Z,96389.00
2022-09-28T00:38:11.980Z,96385.00
2022-09-28T00:38:21.870Z,96387.00
2022-09-28T00:38:32.820Z,96387.00
2022-09-28T00:38:43.451Z,96387.00
2022-09-28T00:38:53.330Z,96389.00
2022-09-28T00:39:03.321Z,96389.00
2022-09-28T00:39:11.870Z,96387.00
2022-09-28T00:39:22.740Z,96385.00
2022-09-28T00:39:31.897Z,96385.00
2022-09-28T00:39:43.333Z,96385.00
2022-09-28T00:39:51.872Z,96381.00
2022-09-28T00:40:03.330Z,96385.00
2022-09-28T00:40:11.897Z,96381.00
2022-09-28T00:40:21.904Z,96381.00
2022-09-28T00:40:33.378Z,96385.00
2022-09-28T00:40:41.953Z,96381.00
2022-09-28T00:40:51.906Z,96385.00
2022-09-28T00:41:02.841Z,96383.00
2022-09-28T00:41:13.323Z,96385.00
2022-09-28T00:41:21.851Z,96383.00
2022-09-28T00:41:33.343Z,96383.00
2022-09-28T00:41:41.862Z,96379.00
2022-09-28T00:41:51.871Z,96383.00
2022-09-28T00:42:01.861Z,96383.00
2022-09-28T00:42:13.325Z,96383.00
2022-09-28T00:42:21.892Z,96377.00
2022-09-28T00:42:31.880Z,96379.00
2022-09-28T00:42:42.682Z,96381.00
2022-09-28T00:42:53.311Z,96379.00
2022-09-28T00:43:03.313Z,96381.00
2022-09-28T00:43:11.842Z,96379.00
2022-09-28T00:43:23.324Z,96379.00
2022-09-28T00:43:31.854Z,96379.00
2022-09-28T00:43:43.312Z,96381.00
2022-09-28T00:43:51.831Z,96379.00
2022-09-28T00:44:03.302Z,96381.00
2022-09-28T00:44:13.291Z,96379.00
2022-09-28T00:44:23.282Z,96379.00
2022-09-28T00:44:33.292Z,96377.00
2022-09-28T00:44:43.295Z,96379.00
2022-09-28T00:44:53.287Z,96379.00
2022-09-28T00:45:01.841Z,96377.00
2022-09-28T00:45:11.872Z,96379.00
2022-09-28T00:45:21.894Z,96379.00
2022-09-28T00:45:33.360Z,96379.00
2022-09-28T00:45:41.860Z,96379.00
2022-09-28T00:45:53.323Z,96379.00
2022-09-28T00:46:03.311Z,96379.00
2022-09-28T00:46:13.308Z,96377.00
2022-09-28T00:46:23.283Z,96381.00
2022-09-28T00:46:31.826Z,96379.00
2022-09-28T00:46:41.829Z,96377.00
2022-09-28T00:46:51.833Z,96374.00
2022-09-28T00:47:03.302Z,96376.00
2022-09-28T00:47:11.863Z,96374.00
2022-09-28T00:47:23.283Z,96374.00
2022-09-28T00:47:32.010Z,96376.00
2022-09-28T00:47:43.254Z,96374.00
2022-09-28T00:47:53.272Z,96372.00
2022-09-28T00:48:03.274Z,96372.00
2022-09-28T00:48:11.841Z,96372.00
2022-09-28T00:48:21.834Z,96370.00
2022-09-28T00:48:33.278Z,96374.00
2022-09-28T00:48:41.815Z,96372.00
2022-09-28T00:48:53.283Z,96376.00
2022-09-28T00:49:02.583Z,96374.00
2022-09-28T00:49:13.301Z,96374.00
2022-09-28T00:49:21.823Z,96372.00
2022-09-28T00:49:33.291Z,96374.00
2022-09-28T00:49:41.795Z,96374.00
2022-09-28T00:49:53.252Z,96372.00
2022-09-28T00:50:03.242Z,96374.00
2022-09-28T00:50:11.794Z,96374.00
2022-09-28T00:50:21.833Z,96374.00
2022-09-28T00:50:31.813Z,96374.00
2022-09-28T00:50:43.253Z,96374.00
2022-09-28T00:50:52.663Z,96372.00
2022-09-28T00:51:03.265Z,96372.00
2022-09-28T00:51:13.233Z,96370.00
2022-09-28T00:51:23.234Z,96372.00
2022-09-28T00:51:33.253Z,96370.00
2022-09-28T00:51:43.268Z,96370.00
2022-09-28T00:51:53.234Z,96370.00
2022-09-28T00:52:01.823Z,96368.00
2022-09-28T00:52:12.073Z,96368.00
2022-09-28T00:52:22.313Z,96370.00
2022-09-28T00:52:32.771Z,96370.00
2022-09-28T00:52:43.257Z,96368.00
2022-09-28T00:52:53.242Z,96368.00
2022-09-28T00:53:03.265Z,96366.00
2022-09-28T00:53:12.393Z,96366.00
2022-09-28T00:53:23.235Z,96364.00
2022-09-28T00:53:31.881Z,96364.00
2022-09-28T00:53:42.393Z,96364.00
2022-09-28T00:53:52.323Z,96366.00
2022-09-28T00:54:01.766Z,96366.00
2022-09-28T00:54:11.882Z,96366.00
2022-09-28T00:54:22.435Z,96366.00
2022-09-28T00:54:31.754Z,96366.00
2022-09-28T00:54:43.215Z,96366.00
2022-09-28T00:54:51.763Z,96364.00
2022-09-28T00:55:01.789Z,96366.00
2022-09-28T00:55:11.744Z,96366.00
2022-09-28T00:55:23.244Z,96364.00
2022-09-28T00:55:31.766Z,96366.00
2022-09-28T00:55:41.793Z,96364.00
2022-09-28T00:55:51.774Z,96364.00
2022-09-28T00:56:01.765Z,96364.00
2022-09-28T00:56:11.793Z,96362.00
2022-09-28T00:56:23.213Z,96364.00
2022-09-28T00:56:33.215Z,96366.00
2022-09-28T00:56:43.204Z,96362.00
2022-09-28T00:56:51.758Z,96364.00
2022-09-28T00:57:02.740Z,96364.00
2022-09-28T00:57:11.754Z,96364.00
2022-09-28T00:57:21.773Z,96360.00
2022-09-28T00:57:33.231Z,96364.00
2022-09-28T00:57:41.754Z,96364.00
2022-09-28T00:57:51.754Z,96364.00
2022-09-28T00:58:01.773Z,96362.00
2022-09-28T00:58:12.727Z,96364.00
2022-09-28T00:58:23.445Z,96362.00
2022-09-28T00:58:33.184Z,96364.00
2022-09-28T00:58:43.186Z,96364.00
2022-09-28T00:58:51.744Z,96364.00
2022-09-28T00:59:02.646Z,96362.00
2022-09-28T00:59:11.846Z,96362.00
2022-09-28T00:59:23.175Z,96360.00
2022-09-28T00:59:31.734Z,96360.00
2022-09-28T00:59:43.204Z,96358.00
2022-09-28T00:59:51.961Z,96360.00
2022-09-28T01:00:01.724Z,96362.00
2022-09-28T01:00:13.190Z,96360.00
2022-09-28T01:00:21.735Z,96360.00
2022-09-28T01:00:31.744Z,96360.00
2022-09-28T01:00:42.551Z,96360.00
2022-09-28T01:00:53.240Z,96364.00
2022-09-28T01:01:01.747Z,96356.00
2022-09-28T01:01:11.809Z,96362.00
2022-09-28T01:01:23.262Z,96356.00
2022-09-28T01:01:31.746Z,96358.00
2022-09-28T01:01:41.759Z,96358.00
2022-09-28T01:01:53.235Z,96356.00
2022-09-28T01:02:03.232Z,96360.00
2022-09-28T01:02:13.194Z,96360.00
2022-09-28T01:02:21.812Z,96356.00
2022-09-28T01:02:32.053Z,96356.00
2022-09-28T01:02:43.166Z,96356.00
2022-09-28T01:02:52.537Z,96358.00
2022-09-28T01:03:03.155Z,96356.00
2022-09-28T01:03:11.704Z,96358.00
2022-09-28T01:03:23.165Z,96356.00
2022-09-28T01:03:33.171Z,96356.00
2022-09-28T01:03:42.715Z,96356.00
2022-09-28T01:03:53.166Z,96356.00
2022-09-28T01:04:01.705Z,96356.00
2022-09-28T01:04:12.666Z,96354.00
2022-09-28T01:04:21.923Z,96356.00
2022-09-28T01:04:33.140Z,96352.00
2022-09-28T01:04:43.155Z,96354.00
2022-09-28T01:04:53.146Z,96354.00
2022-09-28T01:05:01.688Z,96354.00
2022-09-28T01:05:13.146Z,96354.00
2022-09-28T01:05:23.160Z,96350.00
2022-09-28T01:05:31.689Z,96350.00
2022-09-28T01:05:43.145Z,96352.00
2022-09-28T01:05:53.167Z,96354.00
2022-09-28T01:06:03.147Z,96352.00
2022-09-28T01:06:11.690Z,96350.00
2022-09-28T01:06:23.146Z,96352.00
2022-09-28T01:06:32.646Z,96352.00
2022-09-28T01:06:41.700Z,96352.00
2022-09-28T01:06:53.159Z,96348.00
2022-09-28T01:07:03.126Z,96350.00
2022-09-28T01:07:11.704Z,96350.00
2022-09-28T01:07:21.676Z,96348.00
2022-09-28T01:07:32.651Z,96350.00
2022-09-28T01:07:42.637Z,96350.00
2022-09-28T01:07:53.186Z,96350.00
2022-09-28T01:08:03.150Z,96350.00
2022-09-28T01:08:13.141Z,96350.00
2022-09-28T01:08:23.126Z,96350.00
2022-09-28T01:08:33.137Z,96348.00
2022-09-28T01:08:41.678Z,96348.00
2022-09-28T01:08:53.173Z,96346.00
2022-09-28T01:09:03.146Z,96348.00
2022-09-28T01:09:13.139Z,96348.00
2022-09-28T01:09:23.118Z,96348.00
2022-09-28T01:09:31.676Z,96348.00
2022-09-28T01:09:43.168Z,96350.00
2022-09-28T01:09:51.656Z,96350.00
2022-09-28T01:10:01.689Z,96348.00
2022-09-28T01:10:13.116Z,96350.00
2022-09-28T01:10:21.665Z,96348.00
2022-09-28T01:10:33.107Z,96348.00
2022-09-28T01:10:41.807Z,96348.00
2022-09-28T01:10:53.086Z,96344.00
2022-09-28T01:11:03.096Z,96346.00
2022-09-28T01:11:13.096Z,96346.00
2022-09-28T01:11:21.657Z,96346.00
2022-09-28T01:11:33.107Z,96342.00
2022-09-28T01:11:43.124Z,96346.00
2022-09-28T01:11:53.111Z,96344.00
2022-09-28T01:12:01.694Z,96346.00
2022-09-28T01:12:11.655Z,96342.00
2022-09-28T01:12:23.104Z,96342.00
2022-09-28T01:12:33.087Z,96342.00
2022-09-28T01:12:41.637Z,96342.00
2022-09-28T01:12:51.670Z,96342.00
2022-09-28T01:13:03.091Z,96340.00
2022-09-28T01:13:11.656Z,96340.00
2022-09-28T01:13:21.670Z,96342.00
2022-09-28T01:13:31.684Z,96342.00
2022-09-28T01:13:41.656Z,96342.00
2022-09-28T01:13:52.525Z,96340.00
2022-09-28T01:14:02.488Z,96342.00
2022-09-28T01:14:11.644Z,96340.00
2022-09-28T01:14:23.110Z,96342.00
2022-09-28T01:14:33.079Z,96342.00
2022-09-28T01:14:43.087Z,96342.00
2022-09-28T01:14:53.084Z,96340.00
2022-09-28T01:15:01.629Z,96340.00
2022-09-28T01:15:13.094Z,96338.00
2022-09-28T01:15:23.140Z,96340.00
2022-09-28T01:15:31.620Z,96340.00
2022-09-28T01:15:43.096Z,96344.00
2022-09-28T01:15:53.146Z,96340.00
2022-09-28T01:16:03.149Z,96340.00
2022-09-28T01:16:11.663Z,96342.00
2022-09-28T01:16:23.139Z,96344.00
2022-09-28T01:16:33.091Z,96342.00
2022-09-28T01:16:43.131Z,96340.00
2022-09-28T01:16:51.636Z,96338.00
2022-09-28T01:17:01.635Z,96338.00
2022-09-28T01:17:11.619Z,96340.00
2022-09-28T01:17:23.069Z,96338.00
2022-09-28T01:17:33.068Z,96340.00
2022-09-28T01:17:43.068Z,96338.00
2022-09-28T01:17:51.616Z,96338.00
2022-09-28T01:18:03.069Z,96340.00
2022-09-28T01:18:13.050Z,96336.00
2022-09-28T01:18:21.619Z,96336.00
2022-09-28T01:18:33.074Z,96340.00
2022-09-28T01:18:43.059Z,96340.00
2022-09-28T01:18:53.069Z,96340.00
2022-09-28T01:19:03.048Z,96340.00
2022-09-28T01:19:11.600Z,96338.00
2022-09-28T01:19:21.620Z,96338.00
2022-09-28T01:19:33.096Z,96338.00
2022-09-28T01:19:43.039Z,96338.00
2022-09-28T01:19:53.047Z,96338.00
2022-09-28T01:20:03.039Z,96338.00
2022-09-28T01:20:13.067Z,96334.00
2022-09-28T01:20:23.292Z,96338.00
2022-09-28T01:20:33.029Z,96336.00
2022-09-28T01:20:41.876Z,96338.00
2022-09-28T01:20:53.092Z,96336.00
2022-09-28T01:21:01.929Z,96338.00
2022-09-28T01:21:11.959Z,96340.00
2022-09-28T01:21:21.999Z,96336.00
2022-09-28T01:21:31.589Z,96334.00
2022-09-28T01:21:41.759Z,96338.00
2022-09-28T01:21:53.088Z,96334.00
2022-09-28T01:22:03.028Z,96334.00
2022-09-28T01:22:11.592Z,96336.00
2022-09-28T01:22:22.016Z,96332.00
2022-09-28T01:22:33.054Z,96332.00
2022-09-28T01:22:42.087Z,96332.00
2022-09-28T01:22:52.416Z,96334.00
2022-09-28T01:23:01.749Z,96330.00
2022-09-28T01:23:13.097Z,96330.00
2022-09-28T01:23:23.023Z,96332.00
2022-09-28T01:23:33.050Z,96330.00
2022-09-28T01:23:41.642Z,96330.00
2022-09-28T01:23:53.008Z,96330.00
2022-09-28T01:24:01.612Z,96326.00
2022-09-28T01:24:12.157Z,96330.00
2022-09-28T01:24:21.570Z,96326.00
2022-09-28T01:24:33.030Z,96328.00
2022-09-28T01:24:43.034Z,96324.00
2022-09-28T01:24:51.581Z,96322.00
2022-09-28T01:25:03.052Z,96324.00
2022-09-28T01:25:13.001Z,96324.00
2022-09-28T01:25:21.610Z,96321.00
2022-09-28T01:25:31.685Z,96319.00
2022-09-28T01:25:42.991Z,96321.00
2022-09-28T01:25:51.562Z,96321.00
2022-09-28T01:26:01.673Z,96321.00
2022-09-28T01:26:11.593Z,96321.00
2022-09-28T01:26:21.571Z,96319.00
2022-09-28T01:26:32.990Z,96319.00
2022-09-28T01:26:41.590Z,96317.00
2022-09-28T01:26:52.981Z,96317.00
2022-09-28T01:27:03.014Z,96319.00
2022-09-28T01:27:11.542Z,96317.00
2022-09-28T01:27:23.003Z,96317.00
2022-09-28T01:27:31.558Z,96317.00
2022-09-28T01:27:43.003Z,96317.00
2022-09-28T01:27:52.993Z,96315.00
2022-09-28T01:28:02.429Z,96317.00
2022-09-28T01:28:11.541Z,96315.00
2022-09-28T01:28:23.001Z,96315.00
2022-09-28T01:28:31.541Z,96315.00
2022-09-28T01:28:42.984Z,96313.00
2022-09-28T01:28:52.990Z,96313.00
2022-09-28T01:29:01.559Z,96313.00
2022-09-28T01:29:13.033Z,96311.00
2022-09-28T01:29:21.767Z,96311.00
2022-09-28T01:29:31.522Z,96309.00
2022-09-28T01:29:42.991Z,96309.00
2022-09-28T01:29:53.030Z,96309.00
2022-09-28T01:30:01.514Z,96309.00
2022-09-28T01:30:13.013Z,96313.00
2022-09-28T01:30:21.519Z,96309.00
2022-09-28T01:31:08.507Z,96309.00
2022-09-28T01:31:18.515Z,96309.00
2022-09-28T01:31:29.342Z,96309.00
2022-09-28T01:31:39.773Z,96309.00
2022-09-28T01:31:49.850Z,96307.00
2022-09-28T01:31:58.572Z,96307.00
2022-09-28T01:32:08.453Z,96309.00
2022-09-28T01:32:18.523Z,96305.00
2022-09-28T01:32:28.525Z,96305.00
2022-09-28T01:32:38.557Z,96305.00
2022-09-28T01:32:48.536Z,96307.00
2022-09-28T01:32:58.524Z,96303.00
2022-09-28T01:33:08.315Z,96305.00
2022-09-28T01:33:18.595Z,96307.00
2022-09-28T01:33:29.755Z,96305.00
2022-09-28T01:33:38.565Z,96305.00
2022-09-28T01:33:48.596Z,96305.00
2022-09-28T01:33:58.646Z,96303.00
2022-09-28T01:34:08.573Z,96305.00
2022-09-28T01:34:18.315Z,96305.00
2022-09-28T01:34:28.638Z,96305.00
2022-09-28T01:34:38.307Z,96303.00
2022-09-28T01:34:48.361Z,96303.00
2022-09-28T01:34:58.306Z,96305.00
2022-09-28T01:35:08.366Z,96303.00
2022-09-28T01:35:19.773Z,96303.00
2022-09-28T01:35:29.313Z,96301.00
2022-09-28T01:35:38.305Z,96301.00
2022-09-28T01:35:49.764Z,96299.00
2022-09-28T01:35:58.327Z,96299.00
2022-09-28T01:36:08.308Z,96301.00
2022-09-28T01:36:19.770Z,96301.00
2022-09-28T01:36:28.329Z,96295.00
2022-09-28T01:36:38.313Z,96301.00
2022-09-28T01:36:49.767Z,96299.00
2022-09-28T01:36:59.756Z,96297.00
2022-09-28T01:37:09.256Z,96295.00
2022-09-28T01:37:19.757Z,96295.00
2022-09-28T01:37:29.757Z,96295.00
2022-09-28T01:37:38.364Z,96295.00
2022-09-28T01:37:49.745Z,96295.00
2022-09-28T01:37:59.747Z,96293.00
2022-09-28T01:38:09.744Z,96293.00
2022-09-28T01:38:19.753Z,96291.00
2022-09-28T01:38:28.291Z,96291.00
2022-09-28T01:38:39.769Z,96293.00
2022-09-28T01:38:48.416Z,96293.00
2022-09-28T01:38:58.294Z,96291.00
2022-09-28T01:39:08.300Z,96293.00
2022-09-28T01:39:19.757Z,96293.00
2022-09-28T01:39:29.265Z,96291.00
2022-09-28T01:39:39.757Z,96293.00
2022-09-28T01:39:49.745Z,96295.00
2022-09-28T01:39:59.740Z,96291.00
2022-09-28T01:40:08.289Z,96293.00
2022-09-28T01:40:19.789Z,96293.00
2022-09-28T01:40:29.281Z,96291.00
2022-09-28T01:40:39.760Z,96293.00
2022-09-28T01:40:48.336Z,96291.00
2022-09-28T01:40:59.753Z,96289.00
2022-09-28T01:41:08.277Z,96291.00
2022-09-28T01:41:19.102Z,96291.00
2022-09-28T01:41:28.268Z,96291.00
2022-09-28T01:41:39.738Z,96291.00
2022-09-28T01:41:49.225Z,96293.00
2022-09-28T01:41:58.276Z,96291.00
2022-09-28T01:42:09.728Z,96289.00
2022-09-28T01:42:19.728Z,96289.00
2022-09-28T01:42:29.216Z,96289.00
2022-09-28T01:42:39.717Z,96291.00
2022-09-28T01:42:49.707Z,96289.00
2022-09-28T01:42:58.258Z,96289.00
2022-09-28T01:43:09.200Z,96291.00
2022-09-28T01:43:18.267Z,96289.00
2022-09-28T01:43:28.274Z,96287.00
2022-09-28T01:43:39.727Z,96289.00
2022-09-28T01:43:48.365Z,96287.00
2022-09-28T01:43:58.332Z,96289.00
2022-09-28T01:44:09.726Z,96287.00
2022-09-28T01:44:19.721Z,96287.00
2022-09-28T01:44:28.250Z,96289.00
2022-09-28T01:44:38.267Z,96291.00
2022-09-28T01:44:49.709Z,96291.00
2022-09-28T01:44:58.268Z,96287.00
2022-09-28T01:45:09.241Z,96293.00
2022-09-28T01:45:19.698Z,96293.00
2022-09-28T01:45:28.277Z,96293.00
2022-09-28T01:45:38.314Z,96293.00
2022-09-28T01:45:49.233Z,96293.00
2022-09-28T01:45:58.305Z,96295.00
2022-09-28T01:46:09.798Z,96295.00
2022-09-28T01:46:19.810Z,96295.00
2022-09-28T01:46:28.228Z,96289.00
2022-09-28T01:46:39.688Z,96293.00
2022-09-28T01:46:48.243Z,96295.00
2022-09-28T01:46:58.267Z,96293.00
2022-09-28T01:47:08.239Z,96295.00
2022-09-28T01:47:19.037Z,96295.00
2022-09-28T01:47:28.254Z,96289.00
2022-09-28T01:47:39.686Z,96295.00
2022-09-28T01:47:48.224Z,96289.00
2022-09-28T01:47:58.257Z,96287.00
2022-09-28T01:48:09.213Z,96287.00
2022-09-28T01:48:18.450Z,96289.00
2022-09-28T01:48:29.656Z,96289.00
2022-09-28T01:48:39.667Z,96287.00
2022-09-28T01:48:48.358Z,96287.00
2022-09-28T01:48:59.127Z,96287.00
2022-09-28T01:49:08.226Z,96283.00
2022-09-28T01:49:18.315Z,96289.00
2022-09-28T01:49:28.268Z,96287.00
2022-09-28T01:49:38.438Z,96287.00
2022-09-28T01:49:48.245Z,96285.00
2022-09-28T01:49:59.687Z,96287.00
2022-09-28T01:50:08.218Z,96285.00
2022-09-28T01:50:19.678Z,96287.00
2022-09-28T01:50:29.636Z,96289.00
2022-09-28T01:50:38.215Z,96287.00
2022-09-28T01:50:49.658Z,96291.00
2022-09-28T01:50:58.199Z,96287.00
2022-09-28T01:51:09.655Z,96289.00
2022-09-28T01:51:18.219Z,96289.00
2022-09-28T01:51:29.671Z,96287.00
2022-09-28T01:51:38.230Z,96291.00
2022-09-28T01:51:49.707Z,96293.00
2022-09-28T01:51:58.199Z,96293.00
2022-09-28T01:52:08.490Z,96295.00
2022-09-28T01:52:19.629Z,96293.00
2022-09-28T01:52:28.189Z,96295.00
2022-09-28T01:52:39.669Z,96291.00
2022-09-28T01:52:49.649Z,96293.00
2022-09-28T01:52:58.198Z,96293.00
2022-09-28T01:53:08.191Z,96289.00
2022-09-28T01:53:19.658Z,96289.00
2022-09-28T01:53:29.139Z,96291.00
2022-09-28T01:53:39.177Z,96293.00
2022-09-28T01:53:48.227Z,96289.00
2022-09-28T01:53:58.196Z,96289.00
2022-09-28T01:54:08.260Z,96291.00
2022-09-28T01:54:18.181Z,96287.00
2022-09-28T01:54:29.154Z,96291.00
2022-09-28T01:54:38.162Z,96287.00
2022-09-28T01:54:49.647Z,96287.00
2022-09-28T01:54:58.192Z,96287.00
2022-09-28T01:55:09.636Z,96287.00
2022-09-28T01:55:19.633Z,96289.00
2022-09-28T01:55:29.620Z,96289.00
2022-09-28T01:55:39.642Z,96287.00
2022-09-28T01:55:49.618Z,96287.00
2022-09-28T01:55:59.632Z,96289.00
2022-09-28T01:56:08.166Z,96289.00
2022-09-28T01:56:19.657Z,96289.00
2022-09-28T01:56:28.169Z,96289.00
2022-09-28T01:56:39.642Z,96291.00
2022-09-28T01:56:49.640Z,96289.00
2022-09-28T01:56:59.610Z,96287.00
2022-09-28T01:57:08.719Z,96291.00
2022-09-28T01:57:19.590Z,96291.00
2022-09-28T01:57:29.599Z,96289.00
2022-09-28T01:57:38.722Z,96289.00
2022-09-28T01:57:48.825Z,96287.00
2022-09-28T01:57:58.692Z,96287.00